Time;durP1;ratioP1;P1;durP2;ratioP2;P2;SDS_P1;SDS_P2;PMS_P1;PMS_P2;Temp;Humidity;BMP_temperature;BMP_pressure;BME280_temperature;BME280_humidity;BME280_pressure;Samples;Min_cycle;Max_cycle;Signal;HPM_P1;HPM_P2
2023/12/12 00:00:41;;;;;;;9.07;1.83;;;7.10;99.90;;;;;;5070887;28;20136;-89
2023/12/12 00:03:07;;;;;;;9.18;2.00;;;6.60;99.90;;;;;;5070871;28;20055;-89
2023/12/12 00:05:32;;;;;;;7.60;2.13;;;6.60;99.90;;;;;;5058875;28;20059;-90
2023/12/12 00:07:58;;;;;;;5.88;1.83;;;6.60;99.90;;;;;;5071242;28;20052;-90
2023/12/12 00:10:24;;;;;;;7.65;2.00;;;6.80;99.90;;;;;;5062752;28;20049;-89
2023/12/12 00:12:49;;;;;;;6.03;1.83;;;6.50;99.90;;;;;;5057351;28;20053;-90
2023/12/12 00:15:16;;;;;;;7.57;1.73;;;6.50;99.90;;;;;;5063539;28;20501;-88
2023/12/12 00:17:42;;;;;;;6.65;2.00;;;6.40;99.90;;;;;;5070157;28;20102;-89
2023/12/12 00:20:08;;;;;;;5.63;1.75;;;6.40;99.90;;;;;;5069508;28;20060;-89
2023/12/12 00:22:34;;;;;;;6.63;1.70;;;6.40;99.90;;;;;;5064273;28;20048;-89
2023/12/12 00:25:00;;;;;;;5.68;1.90;;;6.30;99.90;;;;;;5067490;28;20416;-90
2023/12/12 00:27:25;;;;;;;7.30;1.75;;;6.30;99.90;;;;;;5058498;28;20029;-88
2023/12/12 00:29:51;;;;;;;13.45;2.47;;;6.30;99.90;;;;;;5052002;28;20045;-89
2023/12/12 00:32:17;;;;;;;8.85;1.70;;;6.20;99.90;;;;;;5055582;28;20048;-89
2023/12/12 00:34:43;;;;;;;6.72;2.13;;;6.20;99.90;;;;;;5056183;28;20037;-90
2023/12/12 00:37:08;;;;;;;5.70;1.70;;;6.10;99.90;;;;;;5057988;28;20045;-89
2023/12/12 00:39:38;;;;;;;6.63;1.77;;;6.10;99.90;;;;;;5066842;28;20079;-87
2023/12/12 00:42:04;;;;;;;8.57;2.10;;;6.00;99.90;;;;;;5065163;28;20055;-89
2023/12/12 00:44:30;;;;;;;7.60;2.00;;;6.00;99.90;;;;;;5063930;28;20411;-88
2023/12/12 00:46:55;;;;;;;8.23;1.77;;;6.00;99.90;;;;;;5064564;28;20131;-89
2023/12/12 00:49:21;;;;;;;7.15;1.50;;;5.90;99.90;;;;;;5069176;28;20055;-88
2023/12/12 00:51:46;;;;;;;8.93;2.50;;;5.90;99.90;;;;;;5056030;28;20063;-88
2023/12/12 00:54:12;;;;;;;8.63;2.17;;;5.90;99.90;;;;;;5057507;28;20053;-88
2023/12/12 00:56:38;;;;;;;7.68;2.00;;;5.80;99.90;;;;;;5068340;28;20132;-87
2023/12/12 00:59:04;;;;;;;5.75;1.60;;;5.80;99.90;;;;;;5051010;28;20045;-87
2023/12/12 01:01:29;;;;;;;8.88;1.95;;;5.80;99.90;;;;;;5057261;28;20075;-87
2023/12/12 01:03:55;;;;;;;5.55;1.75;;;5.80;99.90;;;;;;5057656;28;20496;-85
2023/12/12 01:06:25;;;;;;;6.00;1.67;;;5.70;99.90;;;;;;5062215;28;20080;-86
2023/12/12 01:08:51;;;;;;;8.85;1.80;;;6.00;99.90;;;;;;5055948;28;20044;-83
2023/12/12 01:11:17;;;;;;;7.60;2.40;;;5.70;99.90;;;;;;5067228;28;20048;-86
2023/12/12 01:13:43;;;;;;;8.85;2.25;;;5.70;99.90;;;;;;5058648;28;20045;-85
2023/12/12 01:16:09;;;;;;;7.50;1.92;;;5.70;99.90;;;;;;5060688;28;20048;-87
2023/12/12 01:18:35;;;;;;;10.10;2.10;;;5.60;99.90;;;;;;5066880;28;20128;-86
2023/12/12 01:21:02;;;;;;;9.02;2.03;;;5.90;99.90;;;;;;5064787;28;20048;-87
2023/12/12 01:23:45;;;;;;;7.82;1.73;;;5.60;99.90;;;;;;5070852;28;20488;-87
2023/12/12 01:26:11;;;;;;;10.75;1.80;;;5.60;99.90;;;;;;5062081;28;20142;-85
2023/12/12 01:28:37;;;;;;;7.57;1.50;;;5.50;99.90;;;;;;5055200;28;20532;-86
2023/12/12 01:31:02;;;;;;;7.35;2.00;;;5.50;99.90;;;;;;5051200;28;20393;-86
2023/12/12 01:33:28;;;;;;;8.55;1.70;;;5.50;99.90;;;;;;5056418;28;20118;-87
2023/12/12 01:35:54;;;;;;;6.45;1.30;;;5.50;99.90;;;;;;5068254;28;20052;-87
2023/12/12 01:38:19;;;;;;;7.47;1.60;;;5.50;99.90;;;;;;5069781;28;20114;-87
2023/12/12 01:40:47;;;;;;;6.32;1.90;;;5.40;99.90;;;;;;5056827;28;20047;-83
2023/12/12 01:43:21;;;;;;;10.75;2.67;;;5.40;99.90;;;;;;5067625;28;20056;-86
2023/12/12 01:45:47;;;;;;;;;;;5.40;99.90;;;;;;5069157;28;20053;-87
2023/12/12 01:48:13;;;;;;;5.03;1.40;;;5.40;99.90;;;;;;5069936;28;19951;-87
2023/12/12 01:50:38;;;;;;;7.63;1.40;;;5.40;99.90;;;;;;5068509;28;20105;-85
2023/12/12 01:53:04;;;;;;;8.02;1.52;;;5.30;99.90;;;;;;5066829;28;20511;-87
2023/12/12 01:55:31;;;;;;;7.50;1.70;;;5.30;99.90;;;;;;5061769;28;20056;-87
2023/12/12 01:57:57;;;;;;;9.45;1.30;;;5.30;99.90;;;;;;5067430;28;20134;-86
2023/12/12 02:00:23;;;;;;;6.32;1.77;;;5.30;99.90;;;;;;5066303;28;20052;-87
2023/12/12 02:02:49;;;;;;;5.38;1.92;;;5.30;99.90;;;;;;5069249;28;20091;-85
2023/12/12 02:05:15;;;;;;;5.47;1.60;;;5.30;99.90;;;;;;5060738;28;20210;-88
2023/12/12 02:07:41;;;;;;;6.22;1.70;;;5.20;99.90;;;;;;5049965;28;20045;-87
2023/12/12 02:10:07;;;;;;;10.35;1.95;;;5.20;99.90;;;;;;5056636;28;20052;-85
2023/12/12 02:12:32;;;;;;;6.93;1.73;;;5.20;99.90;;;;;;5070020;28;20040;-87
2023/12/12 02:14:58;;;;;;;7.15;2.03;;;5.20;99.90;;;;;;5066712;28;20102;-85
2023/12/12 02:17:24;;;;;;;7.68;1.60;;;5.20;99.90;;;;;;5054546;28;20077;-86
2023/12/12 02:19:50;;;;;;;5.72;1.48;;;5.20;99.90;;;;;;5049742;28;20049;-87
2023/12/12 02:22:16;;;;;;;4.93;1.58;;;5.10;99.90;;;;;;5050016;28;20120;-86
2023/12/12 02:24:41;;;;;;;7.03;1.40;;;5.10;99.90;;;;;;5050278;28;20116;-85
2023/12/12 02:27:07;;;;;;;11.18;2.05;;;5.10;99.90;;;;;;5067690;28;20060;-85
2023/12/12 02:29:34;;;;;;;4.68;1.75;;;5.00;99.90;;;;;;5070269;28;20085;-86
2023/12/12 02:31:59;;;;;;;5.80;1.75;;;5.00;99.90;;;;;;5040528;28;20124;-87
2023/12/12 02:34:25;;;;;;;6.03;1.45;;;5.00;99.90;;;;;;5059892;28;20124;-85
2023/12/12 02:36:50;;;;;;;4.97;1.20;;;5.00;99.90;;;;;;5051863;28;20511;-83
2023/12/12 02:39:16;;;;;;;5.90;1.50;;;5.00;99.90;;;;;;5063834;28;20049;-85
2023/12/12 02:41:42;;;;;;;10.82;2.78;;;5.00;99.90;;;;;;5051687;28;20126;-87
2023/12/12 02:44:07;;;;;;;7.25;1.48;;;4.90;99.90;;;;;;5051808;28;20057;-86
2023/12/12 02:46:33;;;;;;;5.90;1.65;;;5.10;99.90;;;;;;5054471;28;20412;-87
2023/12/12 02:48:59;;;;;;;4.90;1.23;;;4.90;99.90;;;;;;5066796;28;20041;-87
2023/12/12 02:51:24;;;;;;;4.72;1.20;;;5.00;99.90;;;;;;5069245;28;20051;-89
2023/12/12 02:53:50;;;;;;;7.25;1.38;;;4.90;99.90;;;;;;5065028;28;20090;-90
2023/12/12 02:56:15;;;;;;;7.22;1.23;;;4.80;99.90;;;;;;5057052;28;20400;-87
2023/12/12 02:58:41;;;;;;;5.63;1.30;;;4.80;99.90;;;;;;5051562;28;20033;-87
2023/12/12 03:01:11;;;;;;;5.80;1.63;;;4.80;99.90;;;;;;5051787;28;20052;-90
2023/12/12 03:03:39;;;;;;;3.85;1.20;;;4.80;99.90;;;;;;5058651;28;20037;-88
2023/12/12 03:06:05;;;;;;;8.43;2.38;;;4.80;99.90;;;;;;5060651;28;20052;-89
2023/12/12 03:08:30;;;;;;;6.13;1.40;;;4.70;99.90;;;;;;5049487;28;20331;-88
2023/12/12 03:10:56;;;;;;;5.07;1.48;;;4.70;99.90;;;;;;5054863;28;20385;-88
2023/12/12 03:13:22;;;;;;;5.80;1.65;;;4.80;99.90;;;;;;5064486;28;20033;-88
2023/12/12 03:15:47;;;;;;;5.75;1.23;;;4.70;99.90;;;;;;5063604;28;20037;-88
2023/12/12 03:18:13;;;;;;;6.47;1.30;;;4.70;99.90;;;;;;5063762;28;20139;-90
2023/12/12 03:20:39;;;;;;;5.25;1.40;;;4.60;99.90;;;;;;5058061;28;20660;-89
2023/12/12 03:23:04;;;;;;;6.32;1.33;;;4.60;99.90;;;;;;5081844;28;20229;-89
2023/12/12 03:25:30;;;;;;;6.65;1.45;;;4.60;99.90;;;;;;5051920;28;20044;-87
2023/12/12 03:27:55;;;;;;;6.38;1.35;;;4.50;99.90;;;;;;5050049;28;20041;-87
2023/12/12 03:30:21;;;;;;;5.05;1.60;;;4.50;99.90;;;;;;5062759;28;20423;-87
2023/12/12 03:32:47;;;;;;;5.53;1.40;;;4.50;99.90;;;;;;5059721;28;20037;-89
2023/12/12 03:35:12;;;;;;;7.55;1.77;;;4.50;99.90;;;;;;5056357;28;20049;-89
2023/12/12 03:37:38;;;;;;;4.13;1.40;;;4.40;99.90;;;;;;5064850;28;20050;-88
2023/12/12 03:40:04;;;;;;;6.72;1.42;;;4.50;99.90;;;;;;5062511;28;20045;-89
2023/12/12 03:42:29;;;;;;;7.25;1.88;;;4.40;99.90;;;;;;5066893;28;20049;-89
2023/12/12 03:44:55;;;;;;;9.60;1.40;;;4.40;99.90;;;;;;5057991;28;20381;-88
2023/12/12 03:47:21;;;;;;;4.85;1.27;;;4.40;99.90;;;;;;5057191;28;20044;-86
2023/12/12 03:49:46;;;;;;;7.28;1.77;;;4.30;99.90;;;;;;5054817;28;20041;-87
2023/12/12 03:52:12;;;;;;;8.80;2.50;;;4.30;99.90;;;;;;5071958;28;20075;-88
2023/12/12 03:54:37;;;;;;;9.80;1.85;;;4.30;99.90;;;;;;5065783;28;20044;-88
2023/12/12 03:57:03;;;;;;;7.50;1.67;;;4.20;99.90;;;;;;5051560;28;20053;-89
2023/12/12 03:59:29;;;;;;;6.13;2.00;;;4.20;99.90;;;;;;5062330;28;20079;-88
2023/12/12 04:01:54;;;;;;;5.68;1.55;;;4.20;99.90;;;;;;5051692;28;20041;-87
2023/12/12 04:04:20;;;;;;;6.43;1.60;;;4.20;99.90;;;;;;5069730;28;20147;-88
2023/12/12 04:06:47;;;;;;;8.45;1.38;;;4.20;99.90;;;;;;5052916;28;20045;-88
2023/12/12 04:09:12;;;;;;;3.88;1.30;;;4.20;99.90;;;;;;5051322;28;20045;-88
2023/12/12 04:11:38;;;;;;;4.70;1.40;;;4.10;99.90;;;;;;5050870;28;20095;-88
2023/12/12 04:14:04;;;;;;;3.83;1.45;;;4.10;99.90;;;;;;5051391;28;20484;-88
2023/12/12 04:16:29;;;;;;;6.97;1.40;;;4.10;99.90;;;;;;5054383;28;20056;-88
2023/12/12 04:18:55;;;;;;;6.70;1.33;;;4.10;99.90;;;;;;5073865;28;20053;-88
2023/12/12 04:21:21;;;;;;;3.40;1.23;;;4.10;99.90;;;;;;5064583;28;20051;-84
2023/12/12 04:23:47;;;;;;;4.85;1.58;;;4.10;99.90;;;;;;5056752;28;20119;-88
2023/12/12 04:26:12;;;;;;;4.68;1.35;;;4.10;99.90;;;;;;5074825;28;20094;-88
2023/12/12 04:28:38;;;;;;;6.85;1.40;;;4.10;99.90;;;;;;5061946;28;20044;-88
2023/12/12 04:31:04;;;;;;;6.50;1.73;;;4.10;99.90;;;;;;5054429;28;20041;-88
2023/12/12 04:33:30;;;;;;;5.47;1.55;;;4.00;99.90;;;;;;5054973;28;20554;-88
2023/12/12 04:35:56;;;;;;;7.70;1.50;;;4.00;99.90;;;;;;5073371;28;20412;-88
2023/12/12 04:38:21;;;;;;;6.00;1.52;;;4.00;99.90;;;;;;5074253;28;20044;-87
2023/12/12 04:40:48;;;;;;;4.82;1.40;;;3.90;99.90;;;;;;5065403;28;20037;-88
2023/12/12 04:43:13;;;;;;;5.88;1.92;;;3.90;99.90;;;;;;5057781;28;20131;-86
2023/12/12 04:45:39;;;;;;;5.90;1.80;;;3.90;99.90;;;;;;5074064;28;20135;-88
2023/12/12 04:48:05;;;;;;;6.05;1.98;;;3.90;99.90;;;;;;5073991;28;20045;-89
2023/12/12 04:50:31;;;;;;;7.57;2.10;;;3.90;99.90;;;;;;5058600;28;20049;-85
2023/12/12 04:52:56;;;;;;;4.80;1.83;;;3.90;99.90;;;;;;5054238;28;20136;-88
2023/12/12 04:55:22;;;;;;;5.70;2.33;;;3.90;99.90;;;;;;5053977;28;20056;-87
2023/12/12 04:57:47;;;;;;;8.32;2.88;;;3.90;99.90;;;;;;5062300;28;20064;-88
2023/12/12 05:00:14;;;;;;;6.55;1.65;;;3.90;99.90;;;;;;5053975;28;20045;-88
2023/12/12 05:02:41;;;;;;;4.00;1.65;;;3.90;99.90;;;;;;5053805;28;20045;-88
2023/12/12 05:05:07;;;;;;;6.47;1.92;;;3.90;99.90;;;;;;5058313;28;20056;-88
2023/12/12 05:07:32;;;;;;;4.55;1.80;;;3.90;99.90;;;;;;5060608;28;20041;-88
2023/12/12 05:09:58;;;;;;;5.78;2.00;;;3.90;99.90;;;;;;5055056;28;20041;-88
2023/12/12 05:12:24;;;;;;;6.40;2.40;;;3.90;99.90;;;;;;5073933;28;20396;-88
2023/12/12 05:14:51;;;;;;;8.02;2.58;;;3.90;99.90;;;;;;5057488;28;20060;-88
2023/12/12 05:17:17;;;;;;;9.13;2.45;;;3.90;99.90;;;;;;5043237;28;20056;-88
2023/12/12 05:19:42;;;;;;;6.75;2.60;;;3.90;99.90;;;;;;5074033;28;20044;-88
2023/12/12 05:22:08;;;;;;;8.07;3.22;;;3.90;99.90;;;;;;5076272;28;20040;-88
2023/12/12 05:24:34;;;;;;;7.97;3.28;;;3.90;99.90;;;;;;5064438;28;20110;-88
2023/12/12 05:27:00;;;;;;;7.30;2.90;;;3.90;99.90;;;;;;5059208;28;20045;-88
2023/12/12 05:29:25;;;;;;;9.55;3.10;;;3.90;99.90;;;;;;5068915;28;20040;-87
2023/12/12 05:31:51;;;;;;;6.05;2.30;;;3.90;99.90;;;;;;5060124;28;20094;-86
2023/12/12 05:34:17;;;;;;;6.50;2.65;;;3.90;99.90;;;;;;5073495;28;20048;-88
2023/12/12 05:36:43;;;;;;;12.88;4.93;;;3.90;99.90;;;;;;5056210;28;20037;-87
2023/12/12 05:39:09;;;;;;;9.85;4.90;;;3.80;99.90;;;;;;5053523;28;20041;-89
2023/12/12 05:41:36;;;;;;;5.53;2.47;;;3.80;99.90;;;;;;5071195;28;20044;-87
2023/12/12 05:44:02;;;;;;;10.18;3.72;;;3.80;99.90;;;;;;5059372;28;20053;-87
2023/12/12 05:46:27;;;;;;;10.73;4.50;;;3.80;99.90;;;;;;5053248;28;20489;-88
2023/12/12 05:48:53;;;;;;;26.77;6.22;;;3.80;99.90;;;;;;5069162;28;20560;-87
2023/12/12 05:51:18;;;;;;;12.40;5.93;;;3.80;99.90;;;;;;5063951;28;20055;-88
2023/12/12 05:53:44;;;;;;;12.18;5.88;;;3.80;99.90;;;;;;5055649;28;20129;-89
2023/12/12 05:56:13;;;;;;;37.30;10.35;;;3.80;99.90;;;;;;5066507;28;20174;-88
2023/12/12 05:58:39;;;;;;;101.53;20.35;;;3.80;99.90;;;;;;5066883;28;20777;-88
2023/12/12 06:01:05;;;;;;;45.22;15.10;;;3.80;99.90;;;;;;5065160;28;20056;-89
2023/12/12 06:03:31;;;;;;;39.60;14.88;;;3.80;99.90;;;;;;5062694;28;20099;-89
2023/12/12 06:05:57;;;;;;;65.85;29.38;;;3.80;99.90;;;;;;5061975;28;20048;-88
2023/12/12 06:08:23;;;;;;;64.60;21.85;;;3.80;99.90;;;;;;5063303;28;20043;-88
2023/12/12 06:10:48;;;;;;;85.22;15.88;;;3.80;99.90;;;;;;5066569;28;20079;-89
2023/12/12 06:13:15;;;;;;;95.85;14.43;;;4.40;99.90;;;;;;5070295;28;20048;-88
2023/12/12 06:15:41;;;;;;;68.70;13.18;;;3.80;99.90;;;;;;5053505;28;20051;-85
2023/12/12 06:18:07;;;;;;;50.63;10.80;;;3.90;99.90;;;;;;5039076;28;20049;-87
2023/12/12 06:20:33;;;;;;;24.88;10.88;;;3.90;99.90;;;;;;5037165;28;20481;-86
2023/12/12 06:22:59;;;;;;;33.08;9.98;;;3.80;99.90;;;;;;5054239;28;20102;-86
2023/12/12 06:25:24;;;;;;;26.13;9.57;;;3.90;99.90;;;;;;5064623;28;20049;-82
2023/12/12 06:27:50;;;;;;;43.35;7.85;;;3.90;99.90;;;;;;5062867;28;20048;-87
2023/12/12 06:30:16;;;;;;;52.80;10.52;;;3.80;99.90;;;;;;5052375;28;20045;-86
2023/12/12 06:32:42;;;;;;;84.78;9.90;;;3.90;99.90;;;;;;5065506;28;20124;-86
2023/12/12 06:35:08;;;;;;;52.50;7.88;;;3.80;99.90;;;;;;5052240;28;20091;-86
2023/12/12 06:37:33;;;;;;;54.80;8.05;;;3.90;99.90;;;;;;5051013;28;20140;-84
2023/12/12 06:40:00;;;;;;;61.83;10.23;;;3.80;99.90;;;;;;5051031;28;20053;-87
2023/12/12 06:42:25;;;;;;;42.38;8.25;;;3.80;99.90;;;;;;5052759;28;20045;-85
2023/12/12 06:44:51;;;;;;;58.78;9.32;;;3.80;99.90;;;;;;5051084;28;20377;-84
2023/12/12 06:47:17;;;;;;;54.20;9.85;;;3.80;99.90;;;;;;5052127;28;20091;-86
2023/12/12 06:49:42;;;;;;;32.08;8.93;;;3.90;99.90;;;;;;5055462;28;20084;-83
2023/12/12 06:52:08;;;;;;;74.18;10.85;;;3.90;99.90;;;;;;5055566;28;20037;-87
2023/12/12 06:54:33;;;;;;;109.30;10.95;;;3.90;99.90;;;;;;5052654;28;20569;-86
2023/12/12 06:56:59;;;;;;;81.00;10.25;;;3.90;99.90;;;;;;5070046;28;20048;-85
2023/12/12 06:59:25;;;;;;;88.47;11.68;;;3.90;99.90;;;;;;5072093;28;20059;-86
2023/12/12 07:01:51;;;;;;;50.40;9.40;;;3.90;99.90;;;;;;5064684;28;20457;-85
2023/12/12 07:04:16;;;;;;;91.25;11.88;;;3.90;99.90;;;;;;5066003;28;20086;-85
2023/12/12 07:06:42;;;;;;;58.83;11.30;;;4.00;99.90;;;;;;5060494;28;20823;-86
2023/12/12 07:09:12;;;;;;;127.78;12.50;;;4.00;99.90;;;;;;5060794;28;20048;-86
2023/12/12 07:11:37;;;;;;;61.47;12.23;;;4.00;99.90;;;;;;5062075;28;20080;-87
2023/12/12 07:14:03;;;;;;;52.90;10.68;;;4.00;99.90;;;;;;5058179;28;20082;-86
2023/12/12 07:16:29;;;;;;;38.47;10.88;;;4.00;99.90;;;;;;5068259;28;20053;-87
2023/12/12 07:18:55;;;;;;;99.22;11.25;;;4.00;99.90;;;;;;5060009;28;20057;-86
2023/12/12 07:21:22;;;;;;;64.20;14.38;;;4.10;99.90;;;;;;5054133;28;20693;-86
2023/12/12 07:23:51;;;;;;;181.82;16.63;;;4.00;99.90;;;;;;5064928;28;20051;-92
2023/12/12 07:26:17;;;;;;;97.78;15.38;;;4.10;99.90;;;;;;5070262;28;20058;-92
2023/12/12 07:28:43;;;;;;;15.52;7.68;;;4.10;99.90;;;;;;5055031;28;20041;-87
2023/12/12 07:31:10;;;;;;;36.30;11.30;;;4.10;99.90;;;;;;5053498;28;20770;-88
2023/12/12 07:33:36;;;;;;;28.10;9.95;;;4.10;99.90;;;;;;5063555;28;20052;-87
2023/12/12 07:36:02;;;;;;;36.03;9.82;;;4.10;99.90;;;;;;5051157;28;20048;-84
2023/12/12 07:38:28;;;;;;;76.38;13.90;;;4.20;99.90;;;;;;5059501;28;20172;-87
2023/12/12 07:40:53;;;;;;;73.28;16.83;;;4.20;99.90;;;;;;5067895;28;20049;-87
2023/12/12 07:43:19;;;;;;;102.95;16.30;;;4.20;99.90;;;;;;5061789;28;20041;-87
2023/12/12 07:45:45;;;;;;;103.28;16.70;;;4.20;99.90;;;;;;5056754;28;20041;-87
2023/12/12 07:48:10;;;;;;;41.70;13.50;;;4.20;99.90;;;;;;5049678;28;20044;-86
2023/12/12 07:50:36;;;;;;;30.10;10.48;;;4.20;99.90;;;;;;5064697;28;20416;-87
2023/12/12 07:53:04;;;;;;;71.53;18.30;;;4.30;99.90;;;;;;5069168;28;21684;-88
2023/12/12 07:55:31;;;;;;;63.42;18.92;;;4.30;99.90;;;;;;5066687;28;20052;-90
2023/12/12 07:57:57;;;;;;;148.95;19.95;;;4.30;99.90;;;;;;5075769;28;20040;-89
2023/12/12 08:00:22;;;;;;;34.92;13.63;;;4.30;99.90;;;;;;5055425;28;20049;-87
2023/12/12 08:02:48;;;;;;;77.30;18.48;;;4.40;99.90;;;;;;5067021;28;20071;-87
2023/12/12 08:05:14;;;;;;;44.80;16.02;;;4.40;99.90;;;;;;5067104;28;20045;-86
2023/12/12 08:07:39;;;;;;;62.95;15.82;;;4.60;99.90;;;;;;5054938;28;20044;-87
2023/12/12 08:10:06;;;;;;;44.75;16.75;;;4.40;99.90;;;;;;5073701;28;20373;-86
2023/12/12 08:12:31;;;;;;;31.40;13.73;;;4.40;99.90;;;;;;5074070;28;20484;-86
2023/12/12 08:14:57;;;;;;;50.45;17.00;;;4.70;99.90;;;;;;5069319;28;20041;-88
2023/12/12 08:17:23;;;;;;;53.65;14.57;;;4.50;99.90;;;;;;5074373;28;20056;-87
2023/12/12 08:19:48;;;;;;;32.50;14.95;;;4.50;99.90;;;;;;5060590;28;20045;-81
2023/12/12 08:22:14;;;;;;;38.05;16.17;;;4.50;99.90;;;;;;5055711;28;20056;-82
2023/12/12 08:24:39;;;;;;;31.33;15.25;;;4.50;99.90;;;;;;5067312;28;20045;-84
2023/12/12 08:27:06;;;;;;;47.75;19.80;;;4.50;99.90;;;;;;5069503;28;20434;-83
2023/12/12 08:29:31;;;;;;;33.35;16.63;;;4.60;99.90;;;;;;5066089;28;20453;-82
2023/12/12 08:31:57;;;;;;;64.35;21.80;;;4.60;99.90;;;;;;5071308;28;20079;-84
2023/12/12 08:34:23;;;;;;;85.32;24.30;;;4.60;99.90;;;;;;5052423;28;20128;-84
2023/12/12 08:36:49;;;;;;;37.40;18.55;;;4.70;99.90;;;;;;5055104;28;20052;-84
2023/12/12 08:39:15;;;;;;;64.63;22.23;;;4.70;99.90;;;;;;5066160;28;20041;-84
2023/12/12 08:41:40;;;;;;;55.97;21.13;;;4.70;99.90;;;;;;5045969;28;20059;-84
2023/12/12 08:44:06;;;;;;;52.25;20.60;;;4.70;99.90;;;;;;5052789;28;20056;-84
2023/12/12 08:46:32;;;;;;;86.80;24.73;;;4.80;99.90;;;;;;5067941;28;20384;-82
2023/12/12 08:48:58;;;;;;;82.38;24.25;;;4.80;99.90;;;;;;5052933;28;20655;-84
2023/12/12 08:51:26;;;;;;;236.00;36.15;;;4.80;99.90;;;;;;5069226;28;20049;-84
2023/12/12 08:53:52;;;;;;;343.58;35.55;;;4.90;99.90;;;;;;5063514;28;20044;-85
2023/12/12 08:56:18;;;;;;;152.30;25.30;;;4.90;99.90;;;;;;5059947;28;20041;-83
2023/12/12 08:58:46;;;;;;;173.13;31.25;;;5.00;99.90;;;;;;5062176;28;20051;-84
2023/12/12 09:01:13;;;;;;;309.65;35.35;;;5.00;99.90;;;;;;5061972;28;20427;-85
2023/12/12 09:03:38;;;;;;;312.73;40.65;;;5.00;99.90;;;;;;5058739;28;20056;-85
2023/12/12 09:06:04;;;;;;;316.85;40.13;;;5.10;99.90;;;;;;5059118;28;20392;-83
2023/12/12 09:08:30;;;;;;;268.58;37.35;;;5.10;99.90;;;;;;5063451;28;20621;-84
2023/12/12 09:10:55;;;;;;;436.02;53.33;;;5.10;99.90;;;;;;5057245;28;20051;-84
2023/12/12 09:13:22;;;;;;;305.38;45.47;;;5.20;99.90;;;;;;5060291;28;20052;-85
2023/12/12 09:15:47;;;;;;;350.15;38.22;;;5.20;99.90;;;;;;5059555;28;20770;-86
2023/12/12 09:18:13;;;;;;;348.23;43.70;;;5.20;99.90;;;;;;5061607;28;20060;-84
2023/12/12 09:20:39;;;;;;;318.67;43.97;;;5.30;99.90;;;;;;5056796;28;20056;-86
2023/12/12 09:23:04;;;;;;;172.13;35.00;;;5.30;99.90;;;;;;5060950;28;20044;-85
2023/12/12 09:25:30;;;;;;;283.33;47.20;;;5.20;99.90;;;;;;5060693;28;20044;-85
2023/12/12 09:27:56;;;;;;;365.88;51.90;;;5.30;99.90;;;;;;5061881;28;20037;-83
2023/12/12 09:30:21;;;;;;;267.70;42.72;;;5.30;99.90;;;;;;5060700;28;20049;-84
2023/12/12 09:32:47;;;;;;;162.05;33.67;;;5.30;99.90;;;;;;5058410;28;21816;-85
2023/12/12 09:35:14;;;;;;;265.80;48.88;;;5.30;99.90;;;;;;5061959;28;20037;-86
2023/12/12 09:37:40;;;;;;;208.48;43.42;;;5.40;99.90;;;;;;5059523;28;20139;-85
2023/12/12 09:40:06;;;;;;;235.30;38.30;;;5.50;99.90;;;;;;5052933;28;20465;-85
2023/12/12 09:42:34;;;;;;;202.20;38.70;;;5.40;99.90;;;;;;5063217;28;20037;-83
2023/12/12 09:45:03;;;;;;;177.00;38.30;;;5.40;99.90;;;;;;5066482;28;20067;-84
2023/12/12 09:47:30;;;;;;;251.18;42.53;;;5.40;99.90;;;;;;5062437;28;20048;-84
2023/12/12 09:50:00;;;;;;;224.65;38.92;;;5.40;99.90;;;;;;5057893;28;20037;-84
2023/12/12 09:52:28;;;;;;;119.78;32.10;;;5.50;99.90;;;;;;5066573;28;20047;-84
2023/12/12 09:54:56;;;;;;;281.85;46.65;;;5.60;99.90;;;;;;5063450;28;20109;-84
2023/12/12 09:57:22;;;;;;;154.30;39.40;;;5.50;99.90;;;;;;5062711;28;20049;-84
2023/12/12 09:59:47;;;;;;;170.93;35.08;;;5.50;99.90;;;;;;5040799;28;20045;-84
2023/12/12 10:02:22;;;;;;;129.13;30.17;;;5.60;99.90;;;;;;5042396;28;20101;-84
2023/12/12 10:04:49;;;;;;;;;;;5.60;99.90;;;;;;5064164;28;20113;-84
2023/12/12 10:07:17;;;;;;;211.63;35.97;;;5.60;99.90;;;;;;5056820;28;19924;-84
2023/12/12 10:09:43;;;;;;;145.13;32.72;;;5.60;99.90;;;;;;5057746;28;20040;-83
2023/12/12 10:12:09;;;;;;;127.35;33.80;;;5.60;99.90;;;;;;5061478;28;20077;-84
2023/12/12 10:14:36;;;;;;;92.40;27.63;;;5.60;99.90;;;;;;5062111;28;20480;-85
2023/12/12 10:17:04;;;;;;;64.70;26.15;;;6.10;99.90;;;;;;5060082;28;20051;-84
2023/12/12 10:19:30;;;;;;;80.93;25.20;;;5.70;99.90;;;;;;5060683;28;20060;-85
2023/12/12 10:21:59;;;;;;;65.60;23.65;;;5.70;99.90;;;;;;5047771;28;20392;-86
2023/12/12 10:24:25;;;;;;;104.43;32.97;;;5.70;99.90;;;;;;5055597;28;20055;-85
2023/12/12 10:26:51;;;;;;;122.22;34.50;;;5.70;99.90;;;;;;5059081;28;20125;-84
2023/12/12 10:29:19;;;;;;;70.88;28.40;;;5.70;99.90;;;;;;5059575;28;20087;-85
2023/12/12 10:31:46;;;;;;;90.22;26.15;;;5.70;99.90;;;;;;5057960;28;20102;-85
2023/12/12 10:34:12;;;;;;;88.43;29.63;;;5.70;99.90;;;;;;5054951;28;20045;-85
2023/12/12 10:36:41;;;;;;;81.30;24.55;;;5.70;99.90;;;;;;5054369;28;20045;-85
2023/12/12 10:39:14;;;;;;;84.72;26.45;;;5.80;99.90;;;;;;5056732;28;20048;-84
2023/12/12 10:41:41;;;;;;;91.45;27.67;;;5.80;99.90;;;;;;5057713;28;20049;-85
2023/12/12 10:44:08;;;;;;;52.95;22.23;;;5.80;99.90;;;;;;5064709;28;20549;-84
2023/12/12 10:46:39;;;;;;;68.50;28.83;;;6.40;99.90;;;;;;5061216;28;20110;-84
2023/12/12 10:49:10;;;;;;;91.60;30.35;;;5.80;99.90;;;;;;5059345;28;20070;-84
2023/12/12 10:51:36;;;;;;;74.25;24.83;;;5.80;99.90;;;;;;5058217;28;20444;-84
2023/12/12 10:54:03;;;;;;;52.40;24.38;;;5.80;99.90;;;;;;5062166;28;20162;-86
2023/12/12 10:56:35;;;;;;;49.95;24.05;;;5.80;99.90;;;;;;5061659;28;20041;-85
2023/12/12 10:59:02;;;;;;;62.35;25.13;;;5.80;99.90;;;;;;5057496;28;20145;-83
2023/12/12 11:01:29;;;;;;;101.63;33.03;;;5.80;99.90;;;;;;5059595;28;20076;-84
2023/12/12 11:03:57;;;;;;;89.72;31.20;;;5.90;99.90;;;;;;5055644;28;20411;-85
2023/12/12 11:06:24;;;;;;;85.30;32.05;;;5.90;99.90;;;;;;5063505;28;20049;-91
2023/12/12 11:08:52;;;;;;;98.35;34.03;;;5.90;99.90;;;;;;5062779;28;20037;-94
2023/12/12 11:11:19;;;;;;;64.57;25.42;;;5.90;99.90;;;;;;5070083;28;21892;-89
2023/12/12 11:13:46;;;;;;;75.55;30.95;;;5.90;99.90;;;;;;5056168;28;20037;-89
2023/12/12 11:16:13;;;;;;;65.22;31.58;;;5.90;99.90;;;;;;5064527;28;20053;-89
2023/12/12 11:18:43;;;;;;;60.42;28.95;;;6.00;99.90;;;;;;5073320;28;20099;-88
2023/12/12 11:21:41;;;;;;;59.40;30.38;;;6.00;99.90;;;;;;5066452;28;20049;-88
2023/12/12 11:24:07;;;;;;;50.47;28.05;;;6.00;99.90;;;;;;5069551;28;20033;-90
2023/12/12 11:26:34;;;;;;;48.75;28.23;;;6.00;99.90;;;;;;5055791;28;20397;-89
2023/12/12 11:29:00;;;;;;;58.55;30.80;;;6.10;99.90;;;;;;5070301;28;20063;-88
2023/12/12 11:31:27;;;;;;;62.55;30.58;;;6.10;99.90;;;;;;5072754;28;20466;-87
2023/12/12 11:34:07;;;;;;;72.22;33.75;;;6.10;99.90;;;;;;5071236;28;20503;-86
2023/12/12 11:36:51;;;;;;;65.88;32.95;;;6.20;99.90;;;;;;5064987;28;20048;-89
2023/12/12 11:39:45;;;;;;;63.92;32.92;;;6.20;99.90;;;;;;5071278;28;20392;-89
2023/12/12 11:42:18;;;;;;;69.90;32.70;;;6.20;99.90;;;;;;5062844;28;20049;-84
2023/12/12 11:44:47;;;;;;;78.82;36.35;;;6.30;99.90;;;;;;5058851;28;20116;-86
2023/12/12 11:47:17;;;;;;;55.10;29.08;;;6.20;99.90;;;;;;5039712;28;20047;-87
2023/12/12 11:49:45;;;;;;;57.70;31.05;;;6.30;99.90;;;;;;5067058;28;20705;-86
2023/12/12 11:52:31;;;;;;;52.38;28.83;;;6.30;99.90;;;;;;5067019;28;20040;-86
2023/12/12 11:54:57;;;;;;;49.45;27.13;;;6.30;99.90;;;;;;5059964;28;20055;-86
2023/12/12 11:57:24;;;;;;;50.72;28.27;;;6.30;99.90;;;;;;5075583;28;20040;-86
2023/12/12 11:59:51;;;;;;;49.47;27.67;;;6.30;99.90;;;;;;5055372;28;20051;-87
2023/12/12 12:02:17;;;;;;;42.97;24.65;;;6.30;99.90;;;;;;5067013;28;20464;-86
2023/12/12 12:04:43;;;;;;;42.08;24.05;;;6.30;99.90;;;;;;5058430;28;20037;-86
2023/12/12 12:07:08;;;;;;;38.08;23.17;;;6.30;99.90;;;;;;5063701;28;20049;-88
2023/12/12 12:09:34;;;;;;;46.42;26.33;;;6.70;99.90;;;;;;5050365;28;20037;-86
2023/12/12 12:12:00;;;;;;;44.15;25.50;;;6.30;99.90;;;;;;5058714;28;20060;-87
2023/12/12 12:14:27;;;;;;;44.08;25.65;;;6.30;99.90;;;;;;5056002;28;20048;-86
2023/12/12 12:16:54;;;;;;;45.03;26.35;;;6.30;99.90;;;;;;5060775;28;20040;-86
2023/12/12 12:19:27;;;;;;;42.67;24.77;;;6.30;99.90;;;;;;5061733;28;20509;-87
2023/12/12 12:21:53;;;;;;;44.72;26.38;;;7.20;99.90;;;;;;5059298;28;20049;-85
2023/12/12 12:24:18;;;;;;;47.05;26.40;;;6.30;99.90;;;;;;5066801;28;20040;-86
2023/12/12 12:26:44;;;;;;;43.97;25.58;;;6.30;99.90;;;;;;5053194;28;20484;-87
2023/12/12 12:29:10;;;;;;;39.85;24.95;;;6.30;99.90;;;;;;5056274;28;20047;-87
2023/12/12 12:31:38;;;;;;;44.47;25.70;;;6.30;99.90;;;;;;5054691;28;20044;-84
2023/12/12 12:34:22;;;;;;;49.20;26.35;;;6.30;99.90;;;;;;5063893;28;20045;-86
2023/12/12 12:36:48;;;;;;;47.90;25.83;;;6.30;99.90;;;;;;5052518;28;20080;-85
2023/12/12 12:39:15;;;;;;;39.53;25.08;;;6.30;99.90;;;;;;5066543;28;20048;-87
2023/12/12 12:41:43;;;;;;;44.88;25.70;;;6.30;99.90;;;;;;5068065;28;20084;-85